createdAt,value
2023-09-17T00:01:55.673Z,19.10
2023-09-17T00:04:24.298Z,19.00
2023-09-17T00:06:51.885Z,19.00
2023-09-17T00:09:18.983Z,19.00
2023-09-17T00:11:47.188Z,19.00
2023-09-17T00:14:14.489Z,19.30
2023-09-17T00:16:42.189Z,19.00
2023-09-17T00:19:09.611Z,18.90
2023-09-17T00:21:36.985Z,18.90
2023-09-17T00:24:04.323Z,18.90
2023-09-17T00:26:31.614Z,18.90
2023-09-17T00:28:58.744Z,18.90
2023-09-17T00:31:25.965Z,18.90
2023-09-17T00:33:53.048Z,18.80
2023-09-17T00:36:21.171Z,18.80
2023-09-17T00:38:48.179Z,18.80
2023-09-17T00:41:15.552Z,18.80
2023-09-17T00:43:43.513Z,18.70
2023-09-17T00:46:14.325Z,18.70
2023-09-17T00:48:43.440Z,18.70
2023-09-17T00:51:10.581Z,18.70
2023-09-17T00:53:38.421Z,18.70
2023-09-17T00:56:05.716Z,18.70
2023-09-17T00:58:34.742Z,18.60
2023-09-17T01:01:05.360Z,18.60
2023-09-17T01:03:33.255Z,18.60
2023-09-17T01:06:04.294Z,18.60
2023-09-17T01:08:32.360Z,18.60
2023-09-17T01:11:00.083Z,18.60
2023-09-17T01:13:27.752Z,18.60
2023-09-17T01:15:55.973Z,18.50
2023-09-17T01:18:23.594Z,18.50
2023-09-17T01:21:08.578Z,18.50
2023-09-17T01:24:04.170Z,18.50
2023-09-17T01:26:33.257Z,18.50
2023-09-17T01:29:00.532Z,18.40
2023-09-17T01:31:28.571Z,18.50
2023-09-17T01:33:55.859Z,18.40
2023-09-17T01:36:36.321Z,18.50
2023-09-17T01:39:14.053Z,18.40
2023-09-17T01:41:42.903Z,18.30
2023-09-17T01:44:11.377Z,18.30
2023-09-17T01:46:41.022Z,18.30
2023-09-17T01:49:13.340Z,18.30
2023-09-17T01:51:41.472Z,18.40
2023-09-17T01:54:09.214Z,18.20
2023-09-17T01:56:37.180Z,18.20
2023-09-17T01:59:08.133Z,18.20
2023-09-17T02:01:35.473Z,18.20
2023-09-17T02:04:02.840Z,18.10
2023-09-17T02:06:30.094Z,18.00
2023-09-17T02:08:57.227Z,18.20
2023-09-17T02:11:25.432Z,17.90
2023-09-17T02:13:53.246Z,18.00
2023-09-17T02:16:22.124Z,18.10
2023-09-17T02:18:49.894Z,18.10
2023-09-17T02:21:16.919Z,18.10
2023-09-17T02:23:45.383Z,18.00
2023-09-17T02:26:12.811Z,18.00
2023-09-17T02:28:40.391Z,18.00
2023-09-17T02:31:08.098Z,18.00
2023-09-17T02:33:35.176Z,18.00
2023-09-17T02:36:04.658Z,18.00
2023-09-17T02:38:31.923Z,18.00
2023-09-17T02:41:00.831Z,18.00
2023-09-17T02:43:31.013Z,18.00
2023-09-17T02:45:58.475Z,17.90
2023-09-17T02:48:25.741Z,17.90
2023-09-17T02:50:53.636Z,17.90
2023-09-17T02:53:21.716Z,17.90
2023-09-17T02:55:48.923Z,17.90
2023-09-17T02:58:16.306Z,17.90
2023-09-17T03:00:45.653Z,17.90
2023-09-17T03:03:13.519Z,18.00
2023-09-17T03:05:40.712Z,17.90
2023-09-17T03:08:10.397Z,17.90
2023-09-17T03:10:44.046Z,17.90
2023-09-17T03:13:13.840Z,17.80
2023-09-17T03:15:41.394Z,17.80
2023-09-17T03:18:08.490Z,17.80
2023-09-17T03:20:36.028Z,17.80
2023-09-17T03:23:05.485Z,17.80
2023-09-17T03:25:35.566Z,17.80
2023-09-17T03:28:03.720Z,17.80
2023-09-17T03:30:31.397Z,17.80
2023-09-17T03:33:05.413Z,17.80
2023-09-17T03:35:43.427Z,17.70
2023-09-17T03:38:10.792Z,17.70
2023-09-17T03:40:38.106Z,17.70
2023-09-17T03:43:09.709Z,17.70
2023-09-17T03:45:37.316Z,17.60
2023-09-17T03:48:05.788Z,17.70
2023-09-17T03:50:33.039Z,17.70
2023-09-17T03:53:03.549Z,17.60
2023-09-17T03:55:30.931Z,17.60
2023-09-17T03:57:58.597Z,17.60
2023-09-17T04:00:29.681Z,17.60
2023-09-17T04:02:57.126Z,17.60
2023-09-17T04:05:25.298Z,17.60
2023-09-17T04:07:52.532Z,17.50
2023-09-17T04:10:21.033Z,17.60
2023-09-17T04:12:48.487Z,17.50
2023-09-17T04:15:19.080Z,17.50
2023-09-17T04:17:54.718Z,17.50
2023-09-17T04:20:22.328Z,17.50
2023-09-17T04:22:51.701Z,17.50
2023-09-17T04:25:21.594Z,17.40
2023-09-17T04:27:52.784Z,17.40
2023-09-17T04:30:22.634Z,17.40
2023-09-17T04:32:52.270Z,17.60
2023-09-17T04:35:20.032Z,17.40
2023-09-17T04:37:50.703Z,17.20
2023-09-17T04:40:27.232Z,17.30
2023-09-17T04:42:56.378Z,17.40
2023-09-17T04:45:38.710Z,17.30
2023-09-17T04:48:12.468Z,17.30
2023-09-17T04:50:44.863Z,17.30
2023-09-17T04:53:15.498Z,17.30
2023-09-17T04:55:45.409Z,17.30
2023-09-17T04:58:14.843Z,17.40
2023-09-17T05:00:43.218Z,17.30
2023-09-17T05:03:11.801Z,17.50
2023-09-17T05:05:40.586Z,17.30
2023-09-17T05:08:08.920Z,17.30
2023-09-17T05:10:36.243Z,17.40
2023-09-17T05:13:03.319Z,17.40
2023-09-17T05:15:30.550Z,17.40
2023-09-17T05:17:59.215Z,17.40
2023-09-17T05:20:27.288Z,17.40
2023-09-17T05:22:56.050Z,17.50
2023-09-17T05:25:23.283Z,17.60
2023-09-17T05:27:51.155Z,17.40
2023-09-17T05:30:18.939Z,17.50
2023-09-17T05:32:46.511Z,17.70
2023-09-17T05:35:14.351Z,17.70
2023-09-17T05:37:41.915Z,17.80
2023-09-17T05:40:10.567Z,17.80
2023-09-17T05:42:38.860Z,17.90
2023-09-17T05:45:06.396Z,17.90
2023-09-17T05:47:33.791Z,18.00
2023-09-17T05:50:01.392Z,18.00
2023-09-17T05:52:34.431Z,18.10
2023-09-17T05:55:05.005Z,18.20
2023-09-17T05:57:35.267Z,18.40
2023-09-17T06:00:08.714Z,18.60
2023-09-17T06:02:42.559Z,18.40
2023-09-17T06:05:13.331Z,18.50
2023-09-17T06:07:41.134Z,18.60
2023-09-17T06:10:08.682Z,18.60
2023-09-17T06:12:35.934Z,18.70
2023-09-17T06:15:05.562Z,18.80
2023-09-17T06:17:33.275Z,18.90
2023-09-17T06:20:00.986Z,19.00
2023-09-17T06:22:28.235Z,19.00
2023-09-17T06:24:56.117Z,19.10
2023-09-17T06:27:23.535Z,19.30
2023-09-17T06:29:51.265Z,19.30
2023-09-17T06:32:19.758Z,19.50
2023-09-17T06:34:48.372Z,19.60
2023-09-17T06:37:15.775Z,19.70
2023-09-17T06:39:43.605Z,19.80
2023-09-17T06:42:12.314Z,19.90
2023-09-17T06:44:39.792Z,20.10
2023-09-17T06:47:06.973Z,20.10
2023-09-17T06:49:35.326Z,20.30
2023-09-17T06:52:02.341Z,20.80
2023-09-17T06:54:29.480Z,20.80
2023-09-17T06:56:56.889Z,20.90
2023-09-17T06:59:24.640Z,21.10
2023-09-17T07:01:52.022Z,21.20
2023-09-17T07:04:19.296Z,21.50
2023-09-17T07:06:46.558Z,21.70
2023-09-17T07:09:14.264Z,22.20
2023-09-17T07:11:41.614Z,22.10
2023-09-17T07:14:11.232Z,22.50
2023-09-17T07:16:40.085Z,22.60
2023-09-17T07:19:07.274Z,23.20
2023-09-17T07:21:34.559Z,23.20
2023-09-17T07:24:01.713Z,23.50
2023-09-17T07:26:29.916Z,23.80
2023-09-17T07:28:57.575Z,24.10
2023-09-17T07:31:24.959Z,24.50
2023-09-17T07:33:52.448Z,24.70
2023-09-17T07:36:19.829Z,25.10
2023-09-17T07:38:47.140Z,25.40
2023-09-17T07:41:14.232Z,25.80
2023-09-17T07:43:41.437Z,26.20
2023-09-17T07:46:12.972Z,26.90
2023-09-17T07:48:41.140Z,27.10
2023-09-17T07:51:08.358Z,27.80
2023-09-17T07:53:35.775Z,28.30
2023-09-17T07:56:02.980Z,28.40
2023-09-17T07:58:30.148Z,28.80
2023-09-17T08:00:57.536Z,29.30
2023-09-17T08:03:24.724Z,29.70
2023-09-17T08:05:52.211Z,30.10
2023-09-17T08:08:19.263Z,30.60
2023-09-17T08:10:47.991Z,30.80
2023-09-17T08:13:15.654Z,31.30
2023-09-17T08:15:43.304Z,31.60
2023-09-17T08:18:10.593Z,31.90
2023-09-17T08:20:38.072Z,32.30
2023-09-17T08:23:05.479Z,32.60
2023-09-17T08:25:34.825Z,33.00
2023-09-17T08:28:02.516Z,33.40
2023-09-17T08:30:32.801Z,33.80
2023-09-17T08:33:02.277Z,34.10
2023-09-17T08:35:29.300Z,34.50
2023-09-17T08:37:57.196Z,34.90
2023-09-17T08:40:30.656Z,35.40
2023-09-17T08:43:00.618Z,35.90
2023-09-17T08:45:30.018Z,36.30
2023-09-17T08:47:57.956Z,36.80
2023-09-17T08:50:30.412Z,37.20
2023-09-17T08:53:02.714Z,37.70
2023-09-17T08:55:32.403Z,38.10
2023-09-17T08:58:23.423Z,38.50
2023-09-17T09:00:53.650Z,38.90
2023-09-17T09:03:26.759Z,39.30
2023-09-17T09:05:56.557Z,39.60
2023-09-17T09:08:26.280Z,40.00
2023-09-17T09:10:53.729Z,40.30
2023-09-17T09:13:23.012Z,40.70
2023-09-17T09:15:50.741Z,41.00
2023-09-17T09:18:18.268Z,41.40
2023-09-17T09:20:45.288Z,41.70
2023-09-17T09:23:13.341Z,42.00
2023-09-17T09:25:41.508Z,42.40
2023-09-17T09:28:08.588Z,42.70
2023-09-17T09:30:37.765Z,43.10
2023-09-17T09:33:05.376Z,43.40
2023-09-17T09:35:32.593Z,43.70
2023-09-17T09:38:02.648Z,44.10
2023-09-17T09:40:30.212Z,44.60
2023-09-17T09:42:58.982Z,44.90
2023-09-17T09:45:26.385Z,45.30
2023-09-17T09:47:54.856Z,45.70
2023-09-17T09:50:31.521Z,46.00
2023-09-17T09:52:58.794Z,46.20
2023-09-17T09:55:29.522Z,46.50
2023-09-17T09:57:57.148Z,46.70
2023-09-17T10:00:30.551Z,46.90
2023-09-17T10:02:58.180Z,47.10
2023-09-17T10:05:38.199Z,47.30
2023-09-17T10:08:05.823Z,47.50
2023-09-17T10:10:33.486Z,47.70
2023-09-17T10:13:07.721Z,47.80
2023-09-17T10:15:37.748Z,47.90
2023-09-17T10:18:08.508Z,47.90
2023-09-17T10:20:36.142Z,48.00
2023-09-17T10:23:05.913Z,48.20
2023-09-17T10:25:35.351Z,48.40
2023-09-17T10:28:04.280Z,48.70
2023-09-17T10:30:32.545Z,49.10
2023-09-17T10:33:01.295Z,49.40
2023-09-17T10:35:31.172Z,49.60
2023-09-17T10:38:04.979Z,49.70
2023-09-17T10:40:33.120Z,49.80
2023-09-17T10:43:02.995Z,49.90
2023-09-17T10:45:35.767Z,50.10
2023-09-17T10:48:03.872Z,50.40
2023-09-17T10:50:37.798Z,50.60
2023-09-17T10:53:11.674Z,50.90
2023-09-17T10:55:47.380Z,51.20
2023-09-17T10:58:21.405Z,51.50
2023-09-17T11:00:50.032Z,51.70
2023-09-17T11:03:23.922Z,51.80
2023-09-17T11:05:54.139Z,51.80
2023-09-17T11:08:21.938Z,51.70
2023-09-17T11:10:52.240Z,51.60
2023-09-17T11:13:21.407Z,51.60
2023-09-17T11:15:50.266Z,51.50
2023-09-17T11:18:18.623Z,51.50
2023-09-17T11:21:09.613Z,51.40
2023-09-17T11:23:47.068Z,51.30
2023-09-17T11:26:19.970Z,51.30
2023-09-17T11:29:06.586Z,51.30
2023-09-17T11:32:01.344Z,51.30
2023-09-17T11:34:28.420Z,51.50
2023-09-17T11:36:59.037Z,51.80
2023-09-17T11:39:26.785Z,52.00
2023-09-17T11:42:09.423Z,52.10
2023-09-17T11:44:38.487Z,52.40
2023-09-17T11:47:08.564Z,52.60
2023-09-17T11:49:36.418Z,52.60
2023-09-17T11:52:11.351Z,52.70
2023-09-17T11:54:52.333Z,52.70
2023-09-17T11:57:27.571Z,52.50
2023-09-17T11:59:56.644Z,52.30
2023-09-17T12:02:24.626Z,52.10
2023-09-17T12:04:53.337Z,52.00
2023-09-17T12:07:21.823Z,51.70
2023-09-17T12:09:59.364Z,51.30
2023-09-17T12:12:26.494Z,50.80
2023-09-17T12:14:53.529Z,50.40
2023-09-17T12:17:21.373Z,50.10
2023-09-17T12:20:11.745Z,50.00
2023-09-17T12:23:56.208Z,49.80
2023-09-17T12:27:24.067Z,49.50
2023-09-17T12:29:57.430Z,49.30
2023-09-17T12:32:27.906Z,49.30
2023-09-17T12:34:56.421Z,49.30
2023-09-17T12:37:24.350Z,49.40
2023-09-17T12:39:51.599Z,49.40
2023-09-17T12:42:18.820Z,49.30
2023-09-17T12:44:46.168Z,49.20
2023-09-17T12:47:14.482Z,49.10
2023-09-17T12:49:43.305Z,49.00
2023-09-17T12:52:12.603Z,48.80
2023-09-17T12:54:40.806Z,48.80
2023-09-17T12:57:08.337Z,48.80
2023-09-17T12:59:40.460Z,49.00
2023-09-17T13:02:08.827Z,49.30
2023-09-17T13:04:45.536Z,49.60
2023-09-17T13:07:24.919Z,49.90
2023-09-17T13:09:57.757Z,50.10
2023-09-17T13:12:28.481Z,50.20
2023-09-17T13:14:59.632Z,50.00
2023-09-17T13:17:30.526Z,49.80
2023-09-17T13:19:58.689Z,49.50
2023-09-17T13:22:27.355Z,49.00
2023-09-17T13:24:55.136Z,48.50
2023-09-17T13:27:22.830Z,48.00
2023-09-17T13:29:55.200Z,47.50
2023-09-17T13:32:22.767Z,47.00
2023-09-17T13:34:50.909Z,46.50
2023-09-17T13:37:19.255Z,46.20
2023-09-17T13:39:52.985Z,45.90
2023-09-17T13:42:20.851Z,45.60
2023-09-17T13:44:47.906Z,45.30
2023-09-17T13:47:15.183Z,44.90
2023-09-17T13:49:42.817Z,44.70
2023-09-17T13:52:10.878Z,44.30
2023-09-17T13:54:39.702Z,44.00
2023-09-17T13:57:06.805Z,43.60
2023-09-17T13:59:33.811Z,43.20
2023-09-17T14:02:01.330Z,43.00
2023-09-17T14:04:28.379Z,42.70
2023-09-17T14:06:56.599Z,42.30
2023-09-17T14:09:24.012Z,42.10
2023-09-17T14:11:51.866Z,41.80
2023-09-17T14:14:19.497Z,41.60
2023-09-17T14:16:47.268Z,41.40
2023-09-17T14:19:19.121Z,41.20
2023-09-17T14:21:47.857Z,41.10
2023-09-17T14:24:15.274Z,41.10
2023-09-17T14:26:42.371Z,41.00
2023-09-17T14:29:09.684Z,41.10
2023-09-17T14:31:39.415Z,41.20
2023-09-17T14:34:08.868Z,41.50
2023-09-17T14:36:36.145Z,41.70
2023-09-17T14:39:03.214Z,42.00
2023-09-17T14:41:31.077Z,42.30
2023-09-17T14:43:58.145Z,42.70
2023-09-17T14:46:25.302Z,43.00
2023-09-17T14:48:53.634Z,43.20
2023-09-17T14:51:21.223Z,43.40
2023-09-17T14:53:48.272Z,43.70
2023-09-17T14:56:15.224Z,43.80
2023-09-17T14:58:42.523Z,44.00
2023-09-17T15:01:11.912Z,44.20
2023-09-17T15:03:46.187Z,44.30
2023-09-17T15:06:13.567Z,44.40
2023-09-17T15:08:41.435Z,44.40
2023-09-17T15:11:09.499Z,44.40
2023-09-17T15:13:36.929Z,44.40
2023-09-17T15:16:04.559Z,44.40
2023-09-17T15:18:31.583Z,44.30
2023-09-17T15:20:58.634Z,44.20
2023-09-17T15:23:25.646Z,44.00
2023-09-17T15:25:52.642Z,43.90
2023-09-17T15:28:19.873Z,43.70
2023-09-17T15:30:50.365Z,43.50
2023-09-17T15:33:17.532Z,43.40
2023-09-17T15:35:44.926Z,43.20
2023-09-17T15:38:12.467Z,43.00
2023-09-17T15:40:42.831Z,42.80
2023-09-17T15:43:10.021Z,42.60
2023-09-17T15:45:37.083Z,42.40
2023-09-17T15:48:04.582Z,42.30
2023-09-17T15:50:31.623Z,42.10
2023-09-17T15:52:58.682Z,41.90
2023-09-17T15:55:25.705Z,41.80
2023-09-17T15:57:52.965Z,41.50
2023-09-17T16:00:20.227Z,41.40
2023-09-17T16:02:47.563Z,41.20
2023-09-17T16:05:15.129Z,40.90
2023-09-17T16:07:45.460Z,40.80
2023-09-17T16:10:15.058Z,40.50
2023-09-17T16:12:43.055Z,40.30
2023-09-17T16:15:10.808Z,40.10
2023-09-17T16:17:38.961Z,39.80
2023-09-17T16:20:07.325Z,39.50
2023-09-17T16:22:35.801Z,39.10
2023-09-17T16:25:05.516Z,38.70
2023-09-17T16:27:32.723Z,38.30
2023-09-17T16:30:00.115Z,37.80
2023-09-17T16:32:29.387Z,37.40
2023-09-17T16:34:56.951Z,37.00
2023-09-17T16:37:24.394Z,36.60
2023-09-17T16:39:51.832Z,36.10
2023-09-17T16:42:19.188Z,35.70
2023-09-17T16:44:46.315Z,35.30
2023-09-17T16:47:16.866Z,34.90
2023-09-17T16:49:46.721Z,34.50
2023-09-17T16:52:14.016Z,34.10
2023-09-17T16:54:43.025Z,33.80
2023-09-17T16:57:13.428Z,33.50
2023-09-17T16:59:40.551Z,33.10
2023-09-17T17:02:08.739Z,32.80
2023-09-17T17:04:36.545Z,32.60
2023-09-17T17:07:04.220Z,32.10
2023-09-17T17:09:32.408Z,31.90
2023-09-17T17:11:59.688Z,31.60
2023-09-17T17:14:27.090Z,31.40
2023-09-17T17:16:54.195Z,31.10
2023-09-17T17:19:21.615Z,30.80
2023-09-17T17:21:49.037Z,30.60
2023-09-17T17:24:19.092Z,30.40
2023-09-17T17:26:46.578Z,30.20
2023-09-17T17:29:13.666Z,29.80
2023-09-17T17:31:40.884Z,29.70
2023-09-17T17:34:08.571Z,29.40
2023-09-17T17:36:35.797Z,29.30
2023-09-17T17:39:04.516Z,29.10
2023-09-17T17:41:32.028Z,28.90
2023-09-17T17:44:01.739Z,28.80
2023-09-17T17:46:29.419Z,28.60
2023-09-17T17:48:56.807Z,28.40
2023-09-17T17:51:23.975Z,28.10
2023-09-17T17:53:51.406Z,28.10
2023-09-17T17:56:24.807Z,27.90
2023-09-17T17:58:53.142Z,27.80
2023-09-17T18:01:21.920Z,27.50
2023-09-17T18:03:49.226Z,27.40
2023-09-17T18:06:17.508Z,27.40
2023-09-17T18:08:45.392Z,27.20
2023-09-17T18:11:13.227Z,27.10
2023-09-17T18:13:40.392Z,26.90
2023-09-17T18:16:07.683Z,26.80
2023-09-17T18:18:34.869Z,26.60
2023-09-17T18:21:01.889Z,26.60
2023-09-17T18:23:28.993Z,26.50
2023-09-17T18:25:58.292Z,26.30
2023-09-17T18:28:27.406Z,26.20
2023-09-17T18:30:59.240Z,26.20
2023-09-17T18:33:26.657Z,26.00
2023-09-17T18:35:57.848Z,26.00
2023-09-17T18:38:25.654Z,26.00
2023-09-17T18:40:54.146Z,25.80
2023-09-17T18:43:25.244Z,25.70
2023-09-17T18:45:55.405Z,25.60
2023-09-17T18:48:22.835Z,25.50
2023-09-17T18:50:50.123Z,25.50
2023-09-17T18:53:17.744Z,25.40
2023-09-17T18:55:45.216Z,25.30
2023-09-17T18:58:12.375Z,25.20
2023-09-17T19:00:39.530Z,25.10
2023-09-17T19:03:06.950Z,25.30
2023-09-17T19:05:36.862Z,25.10
2023-09-17T19:08:05.346Z,25.00
2023-09-17T19:10:32.516Z,24.90
2023-09-17T19:12:59.711Z,24.80
2023-09-17T19:15:27.218Z,24.80
2023-09-17T19:17:54.620Z,24.60
2023-09-17T19:20:21.911Z,24.60
2023-09-17T19:22:49.328Z,24.60
2023-09-17T19:25:16.926Z,24.60
2023-09-17T19:27:48.266Z,24.40
2023-09-17T19:30:16.857Z,24.30
2023-09-17T19:32:44.413Z,24.20
2023-09-17T19:35:11.816Z,24.20
2023-09-17T19:37:39.369Z,24.10
2023-09-17T19:40:08.131Z,24.00
2023-09-17T19:42:38.064Z,24.00
2023-09-17T19:45:05.707Z,23.90
2023-09-17T19:47:33.052Z,23.80
2023-09-17T19:50:00.534Z,23.90
2023-09-17T19:52:27.723Z,23.70
2023-09-17T19:54:54.899Z,23.70
2023-09-17T19:57:24.866Z,23.60
2023-09-17T19:59:53.445Z,23.50
2023-09-17T20:02:21.249Z,23.50
2023-09-17T20:04:48.595Z,23.40
2023-09-17T20:07:15.682Z,23.50
2023-09-17T20:09:43.613Z,23.30
2023-09-17T20:12:11.323Z,23.20
2023-09-17T20:14:38.404Z,23.20
2023-09-17T20:17:05.902Z,23.20
2023-09-17T20:19:36.507Z,23.10
2023-09-17T20:22:04.917Z,23.30
2023-09-17T20:24:32.822Z,23.00
2023-09-17T20:27:00.256Z,23.00
2023-09-17T20:29:34.854Z,22.90
2023-09-17T20:32:32.427Z,22.80
2023-09-17T20:35:02.463Z,22.80
2023-09-17T20:37:37.178Z,22.80
2023-09-17T20:40:05.555Z,22.70
2023-09-17T20:42:33.581Z,22.70
2023-09-17T20:45:01.295Z,22.60
2023-09-17T20:47:29.788Z,22.70
2023-09-17T20:49:58.620Z,22.60
2023-09-17T20:52:26.156Z,22.50
2023-09-17T20:54:53.355Z,22.50
2023-09-17T20:57:21.445Z,22.40
2023-09-17T20:59:48.686Z,22.50
2023-09-17T21:02:15.956Z,22.40
2023-09-17T21:04:46.358Z,22.30
2023-09-17T21:07:13.607Z,22.20
2023-09-17T21:09:40.755Z,22.30
2023-09-17T21:12:09.611Z,22.20
2023-09-17T21:14:38.358Z,22.20
2023-09-17T21:17:05.431Z,22.20
2023-09-17T21:19:32.622Z,22.10
2023-09-17T21:21:59.794Z,22.10
2023-09-17T21:24:36.886Z,22.10
2023-09-17T21:27:04.926Z,22.00
2023-09-17T21:29:32.148Z,22.00
2023-09-17T21:32:06.300Z,21.90
2023-09-17T21:34:33.601Z,22.00
2023-09-17T21:37:10.925Z,22.10
2023-09-17T21:39:39.108Z,21.90
2023-09-17T21:42:06.341Z,22.00
2023-09-17T21:44:34.986Z,21.90
2023-09-17T21:47:02.463Z,21.80
2023-09-17T21:49:29.911Z,21.80
2023-09-17T21:51:57.286Z,21.80
2023-09-17T21:54:24.845Z,21.80
2023-09-17T21:56:52.214Z,21.80
2023-09-17T21:59:19.768Z,21.70
2023-09-17T22:01:46.962Z,21.70
2023-09-17T22:04:14.289Z,21.80
2023-09-17T22:06:42.018Z,21.60
2023-09-17T22:09:09.519Z,21.70
2023-09-17T22:11:45.603Z,21.60
2023-09-17T22:14:24.798Z,21.60
2023-09-17T22:16:52.427Z,21.60
2023-09-17T22:19:20.318Z,21.60
2023-09-17T22:21:48.118Z,21.60
2023-09-17T22:24:15.041Z,21.80
2023-09-17T22:26:42.469Z,21.50
2023-09-17T22:29:09.792Z,21.40
2023-09-17T22:31:37.114Z,21.50
2023-09-17T22:34:04.316Z,21.70
2023-09-17T22:36:32.008Z,21.50
2023-09-17T22:38:59.096Z,21.40
2023-09-17T22:41:26.999Z,21.40
2023-09-17T22:43:57.674Z,21.40
2023-09-17T22:46:31.833Z,21.30
2023-09-17T22:48:59.402Z,21.40
2023-09-17T22:51:31.575Z,21.30
2023-09-17T22:53:59.122Z,21.30
2023-09-17T22:56:26.721Z,21.50
2023-09-17T22:58:54.185Z,21.30
2023-09-17T23:01:21.861Z,21.20
2023-09-17T23:03:49.176Z,21.20
2023-09-17T23:06:16.814Z,21.20
2023-09-17T23:08:45.087Z,21.00
2023-09-17T23:11:12.426Z,21.10
2023-09-17T23:13:42.665Z,21.10
2023-09-17T23:16:09.899Z,21.00
2023-09-17T23:18:36.850Z,21.10
2023-09-17T23:21:05.050Z,21.20
2023-09-17T23:23:32.755Z,21.10
2023-09-17T23:26:02.375Z,21.00
2023-09-17T23:28:34.580Z,21.00
2023-09-17T23:31:04.974Z,21.00
2023-09-17T23:33:35.842Z,20.90
2023-09-17T23:36:06.290Z,21.00
2023-09-17T23:38:33.503Z,21.00
2023-09-17T23:41:00.575Z,20.90
2023-09-17T23:43:28.500Z,21.30
2023-09-17T23:45:55.568Z,20.80
2023-09-17T23:48:22.771Z,20.80
2023-09-17T23:50:56.267Z,21.10
2023-09-17T23:53:25.035Z,20.90
2023-09-17T23:55:52.755Z,21.00
2023-09-17T23:58:20.371Z,20.80
